Time;durP1;ratioP1;P1;durP2;ratioP2;P2;SDS_P1;SDS_P2;PMS_P1;PMS_P2;Temp;Humidity;BMP_temperature;BMP_pressure;BME280_temperature;BME280_humidity;BME280_pressure;Samples;Min_cycle;Max_cycle;Signal;HPM_P1;HPM_P2
2022/08/13 00:01:13;;;;;;;2.13;2.03;;;25.80;33.70;;;;;;5083191;28;20821;-86
2022/08/13 00:03:42;;;;;;;2.13;2.03;;;25.80;33.70;;;;;;5090232;28;20447;-86
2022/08/13 00:06:10;;;;;;;1.90;1.80;;;25.70;33.90;;;;;;5091060;28;20443;-86
2022/08/13 00:08:38;;;;;;;2.00;1.90;;;25.70;33.50;;;;;;5072733;28;20472;-86
2022/08/13 00:11:06;;;;;;;2.17;2.07;;;25.60;33.20;;;;;;5049122;28;20458;-84
2022/08/13 00:13:34;;;;;;;2.40;2.23;;;25.60;33.20;;;;;;5093602;28;20474;-87
2022/08/13 00:16:02;;;;;;;2.00;1.83;;;25.50;33.70;;;;;;5074158;28;20448;-87
2022/08/13 00:18:30;;;;;;;2.47;2.27;;;25.50;33.70;;;;;;5090702;28;20491;-87
2022/08/13 00:20:59;;;;;;;3.80;2.60;;;25.40;33.80;;;;;;5092766;28;20462;-86
2022/08/13 00:23:28;;;;;;;3.53;2.23;;;25.40;34.10;;;;;;5076130;28;20451;-86
2022/08/13 00:25:57;;;;;;;2.20;2.00;;;25.40;34.20;;;;;;5071598;28;20462;-86
2022/08/13 00:28:29;;;;;;;2.40;2.20;;;25.40;34.20;;;;;;5091691;28;20452;-86
2022/08/13 00:30:59;;;;;;;5.53;2.40;;;25.30;34.40;;;;;;5072827;28;20444;-88
2022/08/13 00:33:26;;;;;;;1.93;1.83;;;25.30;34.40;;;;;;5072946;28;20486;-86
2022/08/13 00:35:54;;;;;;;2.27;2.17;;;25.20;34.70;;;;;;5090889;28;20444;-87
2022/08/13 00:38:23;;;;;;;3.10;2.40;;;25.20;34.90;;;;;;5073791;28;20521;-87
2022/08/13 00:40:52;;;;;;;3.20;1.93;;;25.10;35.00;;;;;;5069381;28;20439;-87
2022/08/13 00:43:20;;;;;;;2.40;2.30;;;25.10;35.50;;;;;;5071333;28;20444;-88
2022/08/13 00:45:48;;;;;;;5.37;2.33;;;25.10;35.80;;;;;;5073410;28;20508;-87
2022/08/13 00:51:03;;;;;;;2.10;2.00;;;25.00;36.20;;;;;;5059415;28;20439;-86
2022/08/13 00:53:30;;;;;;;2.40;2.20;;;24.90;36.20;;;;;;5065175;28;21013;-86
2022/08/13 00:55:59;;;;;;;7.90;2.67;;;24.90;36.10;;;;;;5074158;28;20512;-87
2022/08/13 00:58:27;;;;;;;2.40;2.20;;;24.80;36.30;;;;;;5073211;28;20454;-87
2022/08/13 01:00:56;;;;;;;2.60;2.40;;;24.80;35.80;;;;;;5092923;28;20459;-87
2022/08/13 01:03:26;;;;;;;3.50;2.07;;;24.70;35.90;;;;;;5073111;28;20942;-86
2022/08/13 01:05:54;;;;;;;3.83;2.00;;;24.60;36.20;;;;;;5092315;28;20456;-87
2022/08/13 01:08:21;;;;;;;2.20;2.00;;;24.50;37.00;;;;;;5058828;28;20989;-87
2022/08/13 01:10:50;;;;;;;2.77;2.27;;;24.50;37.10;;;;;;5090554;28;20462;-86
2022/08/13 01:13:19;;;;;;;2.30;2.20;;;24.50;37.00;;;;;;5056009;28;21093;-87
2022/08/13 01:15:47;;;;;;;3.30;2.30;;;24.50;37.10;;;;;;5072156;28;20444;-87
2022/08/13 01:18:15;;;;;;;3.20;2.37;;;24.50;37.10;;;;;;5080822;28;20546;-86
2022/08/13 01:20:47;;;;;;;2.07;1.97;;;24.50;37.10;;;;;;5075973;28;20856;-85
2022/08/13 01:23:16;;;;;;;2.70;2.50;;;24.50;37.60;;;;;;5048481;28;20439;-87
2022/08/13 01:25:45;;;;;;;8.00;1.93;;;24.50;37.00;;;;;;5080250;28;20432;-87
2022/08/13 01:28:13;;;;;;;2.40;2.20;;;24.40;37.40;;;;;;5070690;28;21052;-86
2022/08/13 01:30:46;;;;;;;2.30;2.10;;;24.40;37.50;;;;;;5089595;28;20447;-85
2022/08/13 01:33:16;;;;;;;3.50;1.97;;;24.30;36.60;;;;;;5090146;28;20966;-87
2022/08/13 01:35:43;;;;;;;2.77;2.47;;;24.30;37.20;;;;;;5065404;28;20512;-87
2022/08/13 01:38:11;;;;;;;3.67;1.97;;;24.20;36.30;;;;;;5066602;28;20971;-84
2022/08/13 01:40:40;;;;;;;2.17;2.07;;;24.10;36.90;;;;;;5055732;28;20446;-87
2022/08/13 01:43:07;;;;;;;1.90;1.80;;;24.00;35.50;;;;;;5091347;28;20443;-85
2022/08/13 01:45:35;;;;;;;6.80;2.47;;;23.90;35.90;;;;;;5073159;28;20513;-88
2022/08/13 01:50:47;;;;;;;2.63;2.43;;;23.80;37.50;;;;;;5090533;28;20451;-86
2022/08/13 01:53:16;;;;;;;8.43;2.33;;;23.90;37.50;;;;;;5087667;28;20483;-87
2022/08/13 01:55:47;;;;;;;3.97;2.40;;;23.90;37.70;;;;;;5039002;28;20472;-87
2022/08/13 01:58:17;;;;;;;2.70;2.33;;;23.90;37.80;;;;;;5087382;28;20440;-87
2022/08/13 02:00:45;;;;;;;2.37;2.27;;;23.90;38.00;;;;;;5059733;28;20451;-88
2022/08/13 02:03:12;;;;;;;2.90;2.50;;;23.90;38.30;;;;;;5062556;28;20436;-87
2022/08/13 02:05:40;;;;;;;2.57;2.37;;;23.90;39.20;;;;;;5064939;28;20469;-87
2022/08/13 02:08:08;;;;;;;2.80;2.60;;;23.80;39.40;;;;;;5092187;28;20955;-87
2022/08/13 02:10:37;;;;;;;3.03;2.70;;;23.80;39.70;;;;;;5062191;28;20467;-87
2022/08/13 02:13:06;;;;;;;7.30;2.60;;;23.80;40.70;;;;;;5073915;28;20470;-87
2022/08/13 02:15:34;;;;;;;2.23;2.03;;;23.80;40.60;;;;;;5087322;28;20456;-88
2022/08/13 02:18:03;;;;;;;3.30;2.60;;;23.80;40.90;;;;;;5090345;28;20790;-87
2022/08/13 02:20:32;;;;;;;3.30;3.10;;;23.70;41.10;;;;;;5089867;28;20470;-87
2022/08/13 02:22:59;;;;;;;3.00;2.47;;;23.70;41.50;;;;;;5090059;28;20452;-87
2022/08/13 02:25:29;;;;;;;2.70;2.50;;;23.70;41.00;;;;;;5056319;28;20454;-88
2022/08/13 02:27:57;;;;;;;2.47;2.27;;;23.60;40.30;;;;;;5091247;28;20535;-88
2022/08/13 02:30:27;;;;;;;3.50;2.73;;;23.50;40.20;;;;;;5075379;28;20481;-87
2022/08/13 02:32:54;;;;;;;2.50;2.30;;;23.50;40.00;;;;;;5070631;28;20953;-87
2022/08/13 02:35:21;;;;;;;2.67;2.47;;;23.40;39.70;;;;;;5069506;28;20443;-88
2022/08/13 02:37:50;;;;;;;3.40;2.27;;;23.40;39.60;;;;;;5090882;28;21047;-87
2022/08/13 02:43:02;;;;;;;2.60;2.27;;;23.30;39.60;;;;;;5040124;28;20516;-88
2022/08/13 02:45:30;;;;;;;2.40;2.23;;;23.20;39.50;;;;;;5056221;28;20456;-88
2022/08/13 02:47:58;;;;;;;2.67;2.47;;;23.20;39.60;;;;;;5057067;28;20454;-87
2022/08/13 02:50:27;;;;;;;6.87;2.73;;;23.20;39.70;;;;;;5051000;28;20551;-87
2022/08/13 02:52:54;;;;;;;4.87;3.30;;;23.20;39.60;;;;;;5092818;28;20459;-87
2022/08/13 02:55:23;;;;;;;3.30;2.97;;;23.20;39.80;;;;;;5044648;28;20440;-87
2022/08/13 02:57:51;;;;;;;3.00;2.80;;;23.10;40.10;;;;;;5081088;28;21184;-87
2022/08/13 03:00:20;;;;;;;3.63;2.50;;;23.10;40.30;;;;;;5050543;28;20536;-86
2022/08/13 03:02:50;;;;;;;3.63;2.80;;;23.10;40.20;;;;;;5062389;28;20545;-87
2022/08/13 03:05:18;;;;;;;3.10;2.80;;;23.00;40.30;;;;;;5057318;28;21242;-87
2022/08/13 03:07:47;;;;;;;5.80;2.93;;;22.90;40.30;;;;;;5067605;28;20463;-88
2022/08/13 03:10:16;;;;;;;3.33;3.13;;;22.90;40.30;;;;;;5073494;28;20467;-88
2022/08/13 03:12:47;;;;;;;3.27;2.87;;;22.90;40.30;;;;;;5076833;28;20452;-87
2022/08/13 03:15:16;;;;;;;2.50;2.40;;;22.90;40.40;;;;;;5092001;28;20572;-88
2022/08/13 03:17:44;;;;;;;2.63;2.43;;;22.90;40.20;;;;;;5061620;28;20464;-86
2022/08/13 03:20:16;;;;;;;3.27;2.97;;;22.80;40.30;;;;;;5091468;28;20479;-87
2022/08/13 03:22:51;;;;;;;2.70;2.50;;;22.80;40.20;;;;;;5092885;28;20455;-87
2022/08/13 03:25:19;;;;;;;3.00;2.50;;;22.80;40.30;;;;;;5076477;28;20449;-87
2022/08/13 03:27:46;;;;;;;2.63;2.43;;;22.70;40.50;;;;;;5094700;28;20439;-86
2022/08/13 03:30:15;;;;;;;4.63;2.57;;;22.70;40.30;;;;;;5058575;28;20475;-87
2022/08/13 03:32:43;;;;;;;3.63;2.30;;;22.70;40.60;;;;;;5057143;28;20531;-87
2022/08/13 03:35:13;;;;;;;3.20;2.90;;;22.60;40.80;;;;;;5056962;28;20975;-86
2022/08/13 03:37:41;;;;;;;3.90;2.43;;;22.60;41.30;;;;;;5078915;28;20459;-87
2022/08/13 03:40:10;;;;;;;2.90;2.70;;;22.60;41.30;;;;;;5084008;28;20486;-87
2022/08/13 03:42:37;;;;;;;2.70;2.50;;;22.50;41.40;;;;;;5074489;28;20800;-87
2022/08/13 03:45:09;;;;;;;3.73;3.20;;;22.50;41.30;;;;;;5072762;28;20469;-86
2022/08/13 03:47:36;;;;;;;3.80;2.60;;;22.50;42.10;;;;;;5085976;28;20470;-87
2022/08/13 03:50:05;;;;;;;2.73;2.53;;;22.40;43.00;;;;;;5048134;28;20565;-87
2022/08/13 03:52:34;;;;;;;2.77;2.57;;;22.40;43.10;;;;;;5071748;28;20435;-87
2022/08/13 03:55:03;;;;;;;2.90;2.70;;;22.40;43.10;;;;;;5054842;28;20468;-87
2022/08/13 03:57:30;;;;;;;2.50;2.40;;;22.40;42.80;;;;;;5048085;28;20451;-88
2022/08/13 03:59:57;;;;;;;2.70;2.50;;;22.30;42.40;;;;;;5073745;28;20471;-86
2022/08/13 04:02:24;;;;;;;5.50;2.57;;;22.30;42.10;;;;;;5071446;28;20491;-86
2022/08/13 04:04:51;;;;;;;3.20;3.00;;;22.30;42.10;;;;;;5072490;28;20448;-87
2022/08/13 04:07:20;;;;;;;3.13;2.83;;;22.20;42.20;;;;;;5050660;28;20447;-87
2022/08/13 04:09:48;;;;;;;5.33;3.23;;;22.10;42.00;;;;;;5090115;28;20555;-87
2022/08/13 04:12:15;;;;;;;3.07;2.87;;;22.10;42.10;;;;;;5071368;28;21057;-87
2022/08/13 04:14:43;;;;;;;6.13;3.37;;;22.10;42.50;;;;;;5073112;28;20464;-86
2022/08/13 04:17:11;;;;;;;2.90;2.67;;;22.10;42.60;;;;;;5090069;28;21032;-86
2022/08/13 04:19:38;;;;;;;3.83;2.80;;;22.00;42.30;;;;;;5092230;28;20995;-86
2022/08/13 04:22:07;;;;;;;3.13;2.93;;;22.00;42.60;;;;;;5082367;28;20458;-86
2022/08/13 04:24:34;;;;;;;3.43;3.13;;;22.00;42.50;;;;;;5072848;28;20448;-85
2022/08/13 04:27:04;;;;;;;2.90;2.70;;;22.00;42.40;;;;;;5076444;28;20456;-86
2022/08/13 04:29:31;;;;;;;3.10;2.63;;;22.00;43.10;;;;;;5057009;28;20566;-87
2022/08/13 04:31:59;;;;;;;2.90;2.70;;;22.00;43.70;;;;;;5070461;28;20443;-87
2022/08/13 04:34:28;;;;;;;3.27;3.07;;;22.00;44.10;;;;;;5055204;28;20813;-86
2022/08/13 04:36:55;;;;;;;3.93;3.20;;;22.00;44.50;;;;;;5093590;28;20444;-86
2022/08/13 04:39:24;;;;;;;3.13;2.93;;;22.00;45.00;;;;;;5071484;28;20478;-87
2022/08/13 04:41:51;;;;;;;4.43;3.00;;;21.90;44.80;;;;;;5089589;28;20467;-86
2022/08/13 04:44:19;;;;;;;2.80;2.60;;;22.00;45.00;;;;;;5060656;28;20946;-86
2022/08/13 04:46:46;;;;;;;3.87;3.47;;;22.00;45.10;;;;;;5081958;28;20484;-86
2022/08/13 04:49:13;;;;;;;3.00;2.77;;;21.90;45.00;;;;;;5054293;28;20463;-86
2022/08/13 04:51:40;;;;;;;2.90;2.70;;;21.90;45.40;;;;;;5069783;28;20516;-87
2022/08/13 04:54:07;;;;;;;3.00;2.80;;;21.90;45.20;;;;;;5071198;28;20489;-84
2022/08/13 04:56:34;;;;;;;4.67;3.70;;;21.90;45.10;;;;;;5091699;28;20486;-87
2022/08/13 04:59:03;;;;;;;3.17;2.90;;;21.90;45.10;;;;;;5088403;28;20463;-87
2022/08/13 05:01:32;;;;;;;2.80;2.60;;;21.90;45.10;;;;;;5069195;28;20475;-86
2022/08/13 05:03:59;;;;;;;4.13;3.40;;;21.90;44.50;;;;;;5071641;28;20444;-86
2022/08/13 05:06:26;;;;;;;5.40;3.50;;;21.90;43.80;;;;;;5089754;28;20848;-87
2022/08/13 05:08:53;;;;;;;3.77;3.47;;;21.90;43.60;;;;;;5087939;28;21038;-86
2022/08/13 05:11:20;;;;;;;3.67;3.37;;;21.80;43.40;;;;;;5089584;28;21200;-87
2022/08/13 05:13:48;;;;;;;3.80;3.50;;;21.90;43.20;;;;;;5075021;28;20495;-87
2022/08/13 05:16:16;;;;;;;3.87;3.50;;;21.90;43.70;;;;;;5072487;28;20473;-86
2022/08/13 05:18:50;;;;;;;4.93;3.30;;;21.90;43.70;;;;;;5066045;28;20850;-86
2022/08/13 05:21:20;;;;;;;3.47;3.20;;;21.90;44.00;;;;;;5081494;28;20545;-87
2022/08/13 05:23:47;;;;;;;5.63;3.57;;;21.90;44.50;;;;;;5070675;28;20533;-87
2022/08/13 05:26:14;;;;;;;3.03;2.70;;;21.90;44.50;;;;;;5054424;28;20448;-86
2022/08/13 05:28:41;;;;;;;3.67;3.20;;;21.90;44.20;;;;;;5075614;28;20478;-86
2022/08/13 05:31:09;;;;;;;3.77;3.47;;;21.90;44.30;;;;;;5088303;28;20474;-85
2022/08/13 05:33:36;;;;;;;3.30;3.00;;;21.90;44.40;;;;;;5056544;28;20955;-87
2022/08/13 05:36:05;;;;;;;3.80;3.40;;;21.90;44.30;;;;;;5075768;28;20487;-87
2022/08/13 05:38:35;;;;;;;3.90;3.60;;;22.00;44.20;;;;;;5092892;28;20471;-87
2022/08/13 05:41:04;;;;;;;3.10;2.90;;;22.00;44.30;;;;;;5043668;28;20965;-87
2022/08/13 05:43:35;;;;;;;3.50;3.27;;;22.00;44.70;;;;;;5063298;28;20561;-86
2022/08/13 05:46:05;;;;;;;3.23;3.03;;;22.00;44.80;;;;;;5071283;28;20450;-87
2022/08/13 05:48:33;;;;;;;3.70;3.30;;;22.00;44.70;;;;;;5072620;28;21037;-87
2022/08/13 05:51:03;;;;;;;6.70;3.80;;;22.00;44.60;;;;;;5071916;28;20538;-86
2022/08/13 05:53:32;;;;;;;3.27;3.07;;;22.00;44.70;;;;;;5056101;28;20458;-87
2022/08/13 05:55:59;;;;;;;3.37;2.97;;;22.00;44.50;;;;;;5070815;28;20531;-87
2022/08/13 05:58:26;;;;;;;3.90;3.60;;;22.10;44.80;;;;;;5056707;28;21013;-88
2022/08/13 06:03:39;;;;;;;3.77;3.43;;;21.90;45.40;;;;;;5075052;28;20584;-86
2022/08/13 06:06:08;;;;;;;3.80;3.50;;;22.00;46.20;;;;;;5076939;28;20962;-87
2022/08/13 06:08:39;;;;;;;4.07;3.63;;;21.80;46.20;;;;;;5055235;28;20550;-86
2022/08/13 06:11:09;;;;;;;4.50;3.57;;;21.80;46.20;;;;;;5072167;28;20448;-87
2022/08/13 06:13:38;;;;;;;4.03;3.73;;;21.90;46.40;;;;;;5054521;28;20451;-87
2022/08/13 06:16:08;;;;;;;3.67;3.37;;;22.00;45.20;;;;;;5063753;28;20464;-87
2022/08/13 06:18:36;;;;;;;4.37;4.00;;;22.10;45.50;;;;;;5091059;28;21049;-87
2022/08/13 06:21:06;;;;;;;10.23;3.50;;;22.20;45.80;;;;;;5091574;28;20462;-87
2022/08/13 06:23:35;;;;;;;6.63;3.10;;;22.20;45.50;;;;;;5075314;28;20947;-86
2022/08/13 06:26:04;;;;;;;3.93;3.53;;;22.30;44.70;;;;;;5055850;28;20448;-86
2022/08/13 06:28:33;;;;;;;3.57;2.97;;;22.40;44.60;;;;;;5050525;28;20450;-87
2022/08/13 06:31:02;;;;;;;7.33;3.50;;;22.40;43.80;;;;;;5069800;28;21088;-87
2022/08/13 06:33:30;;;;;;;5.07;3.27;;;22.40;43.90;;;;;;5076604;28;20436;-87
2022/08/13 06:35:59;;;;;;;3.20;3.00;;;22.50;44.30;;;;;;5077258;28;20478;-87
2022/08/13 06:38:29;;;;;;;3.40;3.20;;;22.60;43.90;;;;;;5094415;28;20463;-87
2022/08/13 06:41:00;;;;;;;4.10;3.37;;;22.60;43.90;;;;;;5076408;28;20704;-87
2022/08/13 06:43:30;;;;;;;3.70;3.40;;;22.60;43.90;;;;;;5095437;28;20447;-87
2022/08/13 06:45:59;;;;;;;4.03;3.17;;;22.50;44.40;;;;;;5077252;28;20478;-88
2022/08/13 06:48:28;;;;;;;5.00;3.37;;;22.70;43.90;;;;;;5074094;28;20463;-87
2022/08/13 06:50:55;;;;;;;3.10;2.70;;;22.90;43.40;;;;;;5073870;28;20458;-87
2022/08/13 06:53:23;;;;;;;3.27;2.90;;;23.10;43.10;;;;;;5060099;28;20458;-87
2022/08/13 06:55:51;;;;;;;3.60;2.93;;;23.10;43.00;;;;;;5077083;28;20454;-88
2022/08/13 06:58:22;;;;;;;3.77;3.20;;;23.30;42.60;;;;;;5097057;28;20456;-87
2022/08/13 07:00:53;;;;;;;4.10;2.87;;;23.50;42.20;;;;;;5076987;28;20964;-87
2022/08/13 07:03:20;;;;;;;3.90;3.50;;;23.70;41.20;;;;;;5096505;28;20822;-86
2022/08/13 07:05:47;;;;;;;3.13;2.50;;;23.80;41.10;;;;;;5076911;28;21036;-87
2022/08/13 07:08:14;;;;;;;4.00;3.60;;;23.90;41.20;;;;;;5075593;28;20448;-87
2022/08/13 07:10:44;;;;;;;4.10;3.60;;;23.50;40.90;;;;;;5093393;28;20440;-88
2022/08/13 07:13:11;;;;;;;2.87;2.67;;;23.50;41.50;;;;;;5091697;28;20454;-87
2022/08/13 07:15:40;;;;;;;5.93;3.10;;;24.00;41.40;;;;;;5094727;28;20538;-87
2022/08/13 07:18:08;;;;;;;5.07;2.80;;;24.10;40.70;;;;;;5093954;28;20459;-88
2022/08/13 07:20:37;;;;;;;3.80;3.50;;;24.20;40.10;;;;;;5078053;28;20475;-86
2022/08/13 07:23:04;;;;;;;3.03;2.60;;;24.20;39.80;;;;;;5075262;28;20440;-86
2022/08/13 07:25:32;;;;;;;4.37;2.57;;;24.40;40.10;;;;;;5095258;28;20546;-87
2022/08/13 07:28:00;;;;;;;8.47;3.00;;;24.70;39.70;;;;;;5079015;28;21134;-87
2022/08/13 07:30:28;;;;;;;3.20;3.00;;;25.00;39.30;;;;;;5076726;28;20483;-86
2022/08/13 07:32:57;;;;;;;6.73;3.37;;;25.20;39.00;;;;;;5077677;28;20489;-87
2022/08/13 07:35:25;;;;;;;3.00;2.77;;;25.30;38.30;;;;;;5049324;28;20467;-87
2022/08/13 07:37:52;;;;;;;3.90;2.90;;;25.50;38.60;;;;;;5078955;28;20478;-88
2022/08/13 07:40:20;;;;;;;2.87;2.67;;;25.60;38.30;;;;;;5094706;28;20546;-87
2022/08/13 07:42:49;;;;;;;2.73;2.53;;;25.90;38.10;;;;;;5096239;28;20474;-87
2022/08/13 07:45:24;;;;;;;3.10;2.90;;;26.00;38.20;;;;;;5060363;28;20943;-87
2022/08/13 07:47:52;;;;;;;2.93;2.73;;;26.20;37.80;;;;;;5077486;28;21180;-87
2022/08/13 07:50:20;;;;;;;4.57;3.17;;;26.30;37.20;;;;;;5082060;28;20491;-88
2022/08/13 07:52:58;;;;;;;2.80;2.60;;;26.40;36.60;;;;;;5070913;28;20451;-87
2022/08/13 07:55:25;;;;;;;4.33;3.20;;;26.50;36.80;;;;;;5085099;28;20570;-86
2022/08/13 07:57:53;;;;;;;5.50;3.10;;;26.70;36.80;;;;;;5079099;28;20459;-88
2022/08/13 08:00:24;;;;;;;4.33;3.30;;;26.80;36.30;;;;;;5096244;28;20455;-89
2022/08/13 08:03:01;;;;;;;7.53;2.93;;;26.90;36.00;;;;;;5079234;28;20459;-89
2022/08/13 08:05:31;;;;;;;4.30;3.00;;;27.00;35.60;;;;;;5071350;28;20443;-88
2022/08/13 08:08:02;;;;;;;4.40;3.00;;;27.10;35.80;;;;;;5089325;28;20957;-88
2022/08/13 08:10:30;;;;;;;2.93;2.73;;;27.10;34.70;;;;;;5069842;28;20487;-88
2022/08/13 08:13:00;;;;;;;6.03;2.93;;;27.20;35.30;;;;;;5089133;28;20447;-87
2022/08/13 08:15:28;;;;;;;3.13;2.93;;;27.40;35.30;;;;;;5082285;28;20463;-89
2022/08/13 08:17:56;;;;;;;3.10;2.80;;;27.60;35.00;;;;;;5050964;28;20539;-87
2022/08/13 08:20:23;;;;;;;9.10;4.00;;;27.70;33.90;;;;;;5069686;28;20488;-89
2022/08/13 08:22:51;;;;;;;3.03;2.90;;;27.70;34.30;;;;;;5074055;28;20467;-87
2022/08/13 08:25:21;;;;;;;3.80;3.00;;;27.80;33.90;;;;;;5065682;28;20443;-88
2022/08/13 08:27:49;;;;;;;4.80;2.97;;;28.00;34.30;;;;;;5097199;28;20446;-89
2022/08/13 08:30:17;;;;;;;4.50;3.50;;;28.10;34.50;;;;;;5071399;28;20478;-87
2022/08/13 08:32:47;;;;;;;3.23;2.93;;;28.30;33.80;;;;;;5088732;28;20545;-88
2022/08/13 08:35:17;;;;;;;3.10;2.90;;;28.30;32.70;;;;;;5090583;28;20979;-88
2022/08/13 08:43:17;;;;;;;2.73;2.53;;;28.80;32.50;;;;;;5044630;28;20544;-88
2022/08/13 08:45:44;;;;;;;7.30;2.80;;;28.90;32.30;;;;;;5060792;28;21150;-88
2022/08/13 08:48:15;;;;;;;3.40;3.10;;;28.80;31.40;;;;;;5044691;28;20451;-90
2022/08/13 08:50:42;;;;;;;6.27;3.17;;;29.00;31.80;;;;;;5088766;28;20544;-88
2022/08/13 08:53:23;;;;;;;2.77;2.60;;;29.30;32.00;;;;;;5068578;28;20439;-87
2022/08/13 08:55:53;;;;;;;3.70;2.80;;;29.40;30.90;;;;;;5072955;28;20577;-87
2022/08/13 08:58:21;;;;;;;3.40;3.10;;;29.70;30.40;;;;;;5087882;28;21118;-87
2022/08/13 09:00:49;;;;;;;6.47;2.80;;;29.90;30.60;;;;;;5085759;28;20462;-87
2022/08/13 09:03:19;;;;;;;3.00;2.70;;;30.10;29.90;;;;;;5067773;28;20458;-85
2022/08/13 09:05:46;;;;;;;3.30;2.90;;;30.30;29.90;;;;;;5087680;28;20444;-88
2022/08/13 09:08:16;;;;;;;3.07;2.87;;;30.40;29.70;;;;;;5072773;28;21017;-87
2022/08/13 09:10:46;;;;;;;3.23;2.93;;;30.60;29.30;;;;;;5088322;28;20485;-87
2022/08/13 09:13:19;;;;;;;3.10;2.50;;;30.60;29.00;;;;;;5052902;28;20443;-88
2022/08/13 09:15:48;;;;;;;8.60;2.97;;;30.70;29.60;;;;;;5061263;28;20477;-87
2022/08/13 09:18:17;;;;;;;3.20;2.90;;;30.80;29.20;;;;;;5087301;28;20558;-86
2022/08/13 09:20:44;;;;;;;2.80;2.60;;;30.80;29.00;;;;;;5051967;28;20547;-87
2022/08/13 09:23:14;;;;;;;3.00;2.80;;;31.00;29.40;;;;;;5041532;28;20943;-88
2022/08/13 09:25:43;;;;;;;3.07;2.77;;;31.20;28.60;;;;;;5072080;28;20455;-86
2022/08/13 09:28:11;;;;;;;2.70;2.50;;;31.30;27.70;;;;;;5070826;28;20466;-86
2022/08/13 09:30:45;;;;;;;3.73;3.00;;;31.50;27.40;;;;;;5056123;28;20476;-88
2022/08/13 09:33:12;;;;;;;2.80;2.57;;;31.60;26.90;;;;;;5091923;28;20456;-88
2022/08/13 09:35:40;;;;;;;2.97;2.77;;;31.60;27.70;;;;;;5089702;28;20561;-87
2022/08/13 09:38:07;;;;;;;3.60;2.73;;;31.70;27.40;;;;;;5081842;28;20435;-87
2022/08/13 09:40:38;;;;;;;4.27;2.93;;;31.60;26.80;;;;;;5057270;28;20561;-89
2022/08/13 09:43:08;;;;;;;2.60;2.33;;;31.70;26.80;;;;;;5074729;28;20447;-87
2022/08/13 09:45:35;;;;;;;2.47;2.23;;;31.90;26.80;;;;;;5072600;28;20451;-87
2022/08/13 09:48:08;;;;;;;3.17;2.87;;;31.90;26.60;;;;;;5055740;28;20813;-88
2022/08/13 09:50:36;;;;;;;3.00;2.30;;;31.90;26.50;;;;;;5056090;28;20689;-87
2022/08/13 09:53:05;;;;;;;3.07;2.40;;;32.10;26.60;;;;;;5092578;28;20477;-87
2022/08/13 09:55:33;;;;;;;2.33;2.13;;;32.20;25.60;;;;;;5091608;28;21251;-87
2022/08/13 09:58:01;;;;;;;2.70;2.50;;;32.40;25.70;;;;;;5093585;28;20498;-88
2022/08/13 10:00:31;;;;;;;3.13;2.20;;;32.80;25.30;;;;;;5089059;28;20479;-87
2022/08/13 10:03:00;;;;;;;4.53;2.53;;;33.10;25.80;;;;;;5060156;28;20470;-88
2022/08/13 10:05:32;;;;;;;2.57;2.37;;;33.20;24.90;;;;;;5071866;28;20544;-87
2022/08/13 10:08:00;;;;;;;2.80;2.60;;;33.40;24.70;;;;;;5090094;28;20448;-86
2022/08/13 10:10:28;;;;;;;2.30;2.20;;;33.40;24.30;;;;;;5091096;28;20498;-88
2022/08/13 10:12:57;;;;;;;7.17;2.57;;;33.50;23.90;;;;;;5075697;28;20471;-88
2022/08/13 10:15:24;;;;;;;2.60;2.47;;;33.30;24.40;;;;;;5074241;28;20479;-88
2022/08/13 10:17:53;;;;;;;2.53;2.40;;;33.20;24.50;;;;;;5061781;28;20451;-86
2022/08/13 10:20:24;;;;;;;2.53;2.33;;;33.50;24.50;;;;;;5059592;28;20471;-87
2022/08/13 10:22:54;;;;;;;3.30;2.20;;;33.90;24.60;;;;;;5085617;28;20442;-88
2022/08/13 10:25:21;;;;;;;5.30;2.30;;;34.30;24.40;;;;;;5075865;28;20447;-87
2022/08/13 10:27:49;;;;;;;2.67;2.17;;;34.10;23.20;;;;;;5071936;28;20459;-88
2022/08/13 10:30:17;;;;;;;3.20;2.37;;;33.70;23.70;;;;;;5097039;28;20493;-88
2022/08/13 10:32:43;;;;;;;3.60;2.20;;;33.40;23.90;;;;;;5063401;28;20459;-88
2022/08/13 10:35:10;;;;;;;2.37;2.27;;;33.60;22.90;;;;;;5095330;28;20451;-86
2022/08/13 10:37:45;;;;;;;2.20;2.10;;;33.90;22.90;;;;;;5059998;28;20816;-87
2022/08/13 10:40:15;;;;;;;2.80;2.27;;;34.30;22.30;;;;;;5095462;28;20465;-87
2022/08/13 10:42:44;;;;;;;4.57;2.13;;;34.20;22.80;;;;;;5077162;28;20535;-88
2022/08/13 10:45:13;;;;;;;2.33;2.13;;;34.30;22.30;;;;;;5075841;28;20459;-90
2022/08/13 10:47:51;;;;;;;2.67;2.47;;;34.60;22.30;;;;;;5096957;28;20451;-89
2022/08/13 10:50:20;;;;;;;2.10;2.00;;;34.80;22.10;;;;;;5073052;28;21041;-88
2022/08/13 10:52:48;;;;;;;2.30;2.20;;;34.60;22.50;;;;;;5070835;28;21133;-88
2022/08/13 10:55:16;;;;;;;5.13;4.63;;;34.60;22.40;;;;;;5077452;28;20902;-88
2022/08/13 10:57:45;;;;;;;2.77;2.57;;;34.50;22.40;;;;;;5086697;28;20467;-88
2022/08/13 11:00:16;;;;;;;1.87;1.77;;;34.40;22.80;;;;;;5083939;28;20463;-88
2022/08/13 11:02:43;;;;;;;2.10;2.00;;;34.20;22.50;;;;;;5059188;28;20439;-88
2022/08/13 11:05:11;;;;;;;2.10;2.00;;;34.10;22.40;;;;;;5080407;28;20436;-87
2022/08/13 11:07:39;;;;;;;2.23;2.03;;;34.40;23.10;;;;;;5101961;28;20447;-87
2022/08/13 11:10:08;;;;;;;2.47;2.27;;;34.80;22.20;;;;;;5096603;28;20977;-87
2022/08/13 11:12:37;;;;;;;8.23;2.03;;;35.10;21.80;;;;;;5067177;28;20459;-87
2022/08/13 11:15:06;;;;;;;2.37;2.23;;;35.30;20.80;;;;;;5079095;28;20459;-88
2022/08/13 11:17:34;;;;;;;2.10;2.00;;;35.30;20.90;;;;;;5075094;28;20470;-89
2022/08/13 11:20:06;;;;;;;5.40;2.50;;;35.40;20.90;;;;;;5092221;28;20464;-88
2022/08/13 11:22:33;;;;;;;2.60;2.10;;;35.70;21.00;;;;;;5096840;28;20457;-86
2022/08/13 11:25:03;;;;;;;2.57;2.37;;;35.80;21.00;;;;;;5076154;28;20564;-87
2022/08/13 11:27:34;;;;;;;2.50;2.30;;;35.60;20.70;;;;;;5067969;28;20444;-88
2022/08/13 11:30:02;;;;;;;1.90;1.80;;;35.80;20.40;;;;;;5056281;28;20498;-87
2022/08/13 11:32:29;;;;;;;2.93;2.30;;;35.90;20.00;;;;;;5062256;28;20455;-88
2022/08/13 11:34:57;;;;;;;2.40;2.20;;;35.90;20.10;;;;;;5054957;28;20946;-88
2022/08/13 11:37:24;;;;;;;2.20;2.03;;;35.80;19.90;;;;;;5063656;28;20486;-87
2022/08/13 11:39:51;;;;;;;2.97;2.57;;;35.60;20.20;;;;;;5071443;28;20468;-88
2022/08/13 11:42:17;;;;;;;1.93;1.83;;;35.70;20.60;;;;;;5050749;28;20961;-89
2022/08/13 11:44:44;;;;;;;4.50;2.30;;;35.10;20.50;;;;;;5054568;28;20472;-87
2022/08/13 11:47:13;;;;;;;2.53;2.13;;;34.70;21.00;;;;;;5083562;28;20439;-87
2022/08/13 11:49:40;;;;;;;2.23;2.13;;;34.50;21.00;;;;;;5084291;28;20475;-87
2022/08/13 11:52:07;;;;;;;2.33;2.10;;;34.40;21.50;;;;;;5071517;28;20864;-89
2022/08/13 11:54:34;;;;;;;2.03;1.93;;;34.60;21.10;;;;;;5067378;28;20559;-88
2022/08/13 11:57:02;;;;;;;2.20;2.00;;;34.60;20.60;;;;;;5078634;28;20565;-88
2022/08/13 11:59:29;;;;;;;1.90;1.80;;;34.30;20.60;;;;;;5052387;28;20493;-88
2022/08/13 12:01:56;;;;;;;2.57;2.17;;;34.10;20.70;;;;;;5087695;28;20467;-87
2022/08/13 12:04:25;;;;;;;2.20;2.10;;;34.30;21.20;;;;;;5068878;28;20471;-88
2022/08/13 12:06:52;;;;;;;2.17;2.00;;;34.60;20.90;;;;;;5041489;28;20463;-89
2022/08/13 12:09:20;;;;;;;2.30;1.93;;;35.20;21.30;;;;;;5067592;28;20475;-89
2022/08/13 12:11:47;;;;;;;2.37;2.23;;;35.70;21.00;;;;;;5085256;28;20462;-87
2022/08/13 12:14:14;;;;;;;2.33;2.23;;;36.00;20.00;;;;;;5087663;28;20528;-88
2022/08/13 12:16:41;;;;;;;2.20;2.10;;;35.90;19.80;;;;;;5072477;28;20474;-87
2022/08/13 12:19:08;;;;;;;2.10;2.00;;;36.20;20.30;;;;;;5072087;28;21060;-88
2022/08/13 12:21:36;;;;;;;2.60;2.40;;;36.20;20.30;;;;;;5093954;28;20532;-87
2022/08/13 12:24:04;;;;;;;2.97;2.77;;;36.40;19.40;;;;;;5094943;28;20942;-87
2022/08/13 12:26:31;;;;;;;2.53;2.33;;;36.50;18.80;;;;;;5065633;28;20439;-88
2022/08/13 12:28:58;;;;;;;3.10;2.40;;;36.40;19.90;;;;;;5073976;28;20967;-88
2022/08/13 12:31:25;;;;;;;2.43;2.23;;;36.70;19.80;;;;;;5074723;28;20452;-88
2022/08/13 12:33:51;;;;;;;2.33;2.23;;;36.60;19.30;;;;;;5091859;28;20505;-87
2022/08/13 12:36:18;;;;;;;2.60;2.40;;;36.60;19.70;;;;;;5092636;28;20573;-90
2022/08/13 12:38:48;;;;;;;2.27;2.10;;;36.70;19.40;;;;;;5088476;28;21004;-89
2022/08/13 12:41:15;;;;;;;3.13;2.33;;;36.60;19.00;;;;;;5075357;28;20509;-90
2022/08/13 12:43:42;;;;;;;2.73;2.53;;;36.50;19.30;;;;;;5077092;28;20439;-90
2022/08/13 12:46:11;;;;;;;2.27;2.17;;;36.60;19.20;;;;;;5073217;28;21445;-89
2022/08/13 12:48:38;;;;;;;3.23;2.90;;;36.10;19.10;;;;;;5092511;28;20464;-90
2022/08/13 12:51:05;;;;;;;3.03;2.50;;;35.90;19.60;;;;;;5088885;28;21229;-87
2022/08/13 12:53:32;;;;;;;2.60;2.50;;;35.90;20.10;;;;;;5061824;28;20431;-87
2022/08/13 12:56:00;;;;;;;2.47;2.37;;;35.80;19.80;;;;;;5069263;28;20462;-87
2022/08/13 12:58:28;;;;;;;2.50;2.33;;;36.20;19.90;;;;;;5058830;28;20482;-87
2022/08/13 13:00:56;;;;;;;2.47;2.30;;;36.50;19.10;;;;;;5087661;28;20447;-87
2022/08/13 13:03:27;;;;;;;2.43;2.07;;;36.10;19.00;;;;;;5069885;28;20439;-87
2022/08/13 13:05:57;;;;;;;3.90;2.53;;;36.40;19.50;;;;;;5076602;28;20448;-88
2022/08/13 13:08:30;;;;;;;2.10;2.00;;;36.50;18.60;;;;;;5053021;28;20443;-89
2022/08/13 13:11:03;;;;;;;2.50;2.30;;;36.60;19.80;;;;;;5072937;28;20443;-86